createdAt,value
2019-06-08T00:02:53.001Z,77.70
2019-06-08T00:07:03.404Z,77.60
2019-06-08T00:11:14.984Z,76.70
2019-06-08T00:15:25.307Z,76.60
2019-06-08T00:19:35.521Z,76.00
2019-06-08T00:23:45.716Z,76.00
2019-06-08T00:27:56.044Z,76.10
2019-06-08T00:32:06.545Z,76.50
2019-06-08T00:36:16.851Z,76.00
2019-06-08T00:40:27.199Z,74.90
2019-06-08T00:44:37.384Z,74.00
2019-06-08T00:48:47.618Z,71.20
2019-06-08T00:52:57.960Z,70.70
2019-06-08T00:57:08.283Z,70.80
2019-06-08T01:01:20.793Z,69.90
2019-06-08T01:05:30.451Z,68.40
2019-06-08T01:09:40.817Z,68.30
2019-06-08T01:13:51.156Z,68.80
2019-06-08T01:18:03.691Z,69.30
2019-06-08T01:22:13.375Z,69.50
2019-06-08T01:26:23.962Z,69.30
2019-06-08T01:30:34.241Z,68.50
2019-06-08T01:34:44.480Z,68.50
2019-06-08T01:38:54.720Z,68.70
2019-06-08T01:43:05.048Z,68.70
2019-06-08T01:47:15.366Z,69.20
2019-06-08T01:51:26.534Z,68.80
2019-06-08T01:55:36.764Z,69.30
2019-06-08T01:59:46.954Z,70.70
2019-06-08T02:03:57.236Z,71.60
2019-06-08T02:08:07.455Z,71.60
2019-06-08T02:12:17.681Z,72.20
2019-06-08T02:16:29.622Z,72.30
2019-06-08T02:20:39.893Z,71.90
2019-06-08T02:24:50.227Z,71.50
2019-06-08T02:29:00.452Z,70.60
2019-06-08T02:33:10.809Z,70.60
2019-06-08T02:37:21.087Z,70.40
2019-06-08T02:41:32.667Z,70.90
2019-06-08T02:45:43.247Z,70.80
2019-06-08T02:49:53.597Z,70.90
2019-06-08T02:54:04.098Z,71.20
2019-06-08T02:58:14.732Z,71.10
2019-06-08T03:02:29.636Z,71.20
2019-06-08T03:06:41.607Z,71.50
2019-06-08T03:10:52.687Z,71.40
2019-06-08T03:15:04.433Z,71.10
2019-06-08T03:19:21.513Z,71.20
2019-06-08T03:23:26.475Z,71.50
2019-06-08T03:27:37.301Z,71.60
2019-06-08T03:31:55.581Z,71.80
2019-06-08T03:36:00.737Z,71.80
2019-06-08T03:40:11.039Z,71.80
2019-06-08T03:44:21.372Z,71.50
2019-06-08T03:48:31.609Z,71.70
2019-06-08T03:52:42.509Z,71.70
2019-06-08T03:56:53.803Z,70.10
2019-06-08T04:01:04.081Z,68.80
2019-06-08T04:05:14.344Z,69.40
2019-06-08T04:09:24.679Z,67.60
2019-06-08T04:13:34.959Z,65.90
2019-06-08T04:17:46.403Z,65.40
2019-06-08T04:21:56.589Z,65.80
2019-06-08T04:26:06.911Z,65.00
2019-06-08T04:30:17.558Z,63.60
2019-06-08T04:34:27.794Z,64.20
2019-06-08T04:38:39.017Z,65.30
2019-06-08T04:42:50.963Z,65.60
2019-06-08T04:47:01.475Z,65.90
2019-06-08T04:51:11.770Z,66.40
2019-06-08T04:55:22.034Z,66.40
2019-06-08T04:59:32.242Z,66.30
2019-06-08T05:03:43.319Z,66.30
2019-06-08T05:07:53.642Z,65.60
2019-06-08T05:12:03.859Z,65.00
2019-06-08T05:16:14.076Z,65.50
2019-06-08T05:20:37.633Z,66.00
2019-06-08T05:24:36.131Z,65.90
2019-06-08T05:28:47.382Z,66.00
2019-06-08T05:32:57.732Z,66.10
2019-06-08T05:37:07.931Z,66.00
2019-06-08T05:41:18.201Z,65.50
2019-06-08T05:45:28.672Z,66.10
2019-06-08T05:49:39.733Z,65.30
2019-06-08T05:53:50.316Z,65.30
2019-06-08T05:58:00.525Z,65.50
2019-06-08T06:02:10.848Z,64.90
2019-06-08T06:06:21.094Z,65.20
2019-06-08T06:10:31.271Z,65.00
2019-06-08T06:14:42.534Z,65.10
2019-06-08T06:18:53.041Z,65.50
2019-06-08T06:23:03.379Z,65.10
2019-06-08T06:27:13.717Z,65.70
2019-06-08T06:31:24.084Z,65.60
2019-06-08T06:35:34.380Z,65.20
2019-06-08T06:39:45.854Z,64.80
2019-06-08T06:43:56.273Z,63.90
2019-06-08T06:48:06.501Z,64.60
2019-06-08T06:52:16.834Z,65.10
2019-06-08T06:56:27.141Z,65.50
2019-06-08T07:00:39.198Z,65.50
2019-06-08T07:04:52.136Z,65.70
2019-06-08T07:09:02.984Z,65.50
2019-06-08T07:13:13.402Z,65.10
2019-06-08T07:17:23.845Z,65.10
2019-06-08T07:21:41.740Z,64.90
2019-06-08T07:25:46.287Z,64.80
2019-06-08T07:29:56.671Z,65.20
2019-06-08T07:34:06.980Z,64.70
2019-06-08T07:38:17.278Z,64.40
2019-06-08T07:42:27.612Z,63.30
2019-06-08T07:46:37.814Z,61.30
2019-06-08T07:50:48.530Z,58.60
2019-06-08T07:54:59.100Z,56.80
2019-06-08T07:59:09.338Z,56.00
2019-06-08T08:03:19.576Z,56.10
2019-06-08T08:07:29.912Z,57.00
2019-06-08T08:11:40.302Z,57.20
2019-06-08T08:15:50.782Z,56.00
2019-06-08T08:20:00.971Z,54.40
2019-06-08T08:24:12.400Z,55.00
2019-06-08T08:28:22.639Z,55.50
2019-06-08T08:32:32.831Z,55.50
2019-06-08T08:36:43.155Z,55.30
2019-06-08T08:40:55.150Z,54.80
2019-06-08T08:45:09.024Z,54.20
2019-06-08T08:49:19.389Z,54.50
2019-06-08T08:53:29.645Z,54.70
2019-06-08T08:57:41.575Z,55.50
2019-06-08T09:01:52.860Z,55.50
2019-06-08T09:06:03.997Z,55.60
2019-06-08T09:10:14.619Z,55.40
2019-06-08T09:14:24.814Z,56.00
2019-06-08T09:18:37.353Z,55.70
2019-06-08T09:22:53.912Z,55.40
2019-06-08T09:27:00.934Z,54.40
2019-06-08T09:31:12.997Z,54.20
2019-06-08T09:35:22.638Z,53.10
2019-06-08T09:39:32.981Z,52.80
2019-06-08T09:43:43.324Z,52.30
2019-06-08T09:47:54.158Z,51.60
2019-06-08T09:52:08.247Z,51.10
2019-06-08T09:56:18.596Z,50.30
2019-06-08T10:00:29.859Z,50.20
2019-06-08T10:04:40.257Z,49.40
2019-06-08T10:08:51.384Z,50.00
2019-06-08T10:13:04.862Z,50.60
2019-06-08T10:17:13.793Z,50.40
2019-06-08T10:21:24.089Z,49.40
2019-06-08T10:25:34.434Z,49.10
2019-06-08T10:29:44.756Z,47.60
2019-06-08T10:33:56.207Z,46.50
2019-06-08T10:38:11.241Z,45.80
2019-06-08T10:42:18.706Z,44.90
2019-06-08T10:46:28.913Z,44.00
2019-06-08T10:50:39.101Z,43.00
2019-06-08T10:54:49.413Z,41.70
2019-06-08T10:59:01.610Z,39.00
2019-06-08T11:03:12.003Z,38.90
2019-06-08T11:07:22.296Z,38.10
2019-06-08T11:11:32.902Z,39.10
2019-06-08T11:15:43.188Z,39.80
2019-06-08T11:19:53.522Z,39.30
2019-06-08T11:24:14.397Z,37.70
2019-06-08T11:28:18.437Z,36.70
2019-06-08T11:32:27.847Z,36.10
2019-06-08T11:36:39.432Z,35.20
2019-06-08T11:40:50.869Z,34.80
2019-06-08T11:45:02.290Z,35.50
2019-06-08T11:49:15.058Z,35.30
2019-06-08T11:53:24.863Z,35.50
2019-06-08T11:57:37.308Z,35.20
2019-06-08T12:01:50.437Z,35.70
2019-06-08T12:06:00.363Z,35.80
2019-06-08T12:10:12.481Z,36.40
2019-06-08T12:14:22.537Z,36.00
2019-06-08T12:18:32.782Z,34.70
2019-06-08T12:22:43.016Z,33.70
2019-06-08T12:27:00.172Z,33.90
2019-06-08T12:31:05.139Z,34.50
2019-06-08T12:35:17.976Z,35.10
2019-06-08T12:39:28.176Z,35.00
2019-06-08T12:43:38.581Z,35.10
2019-06-08T12:47:48.936Z,32.90
2019-06-08T12:51:59.149Z,34.40
2019-06-08T12:56:11.732Z,33.50
2019-06-08T13:00:23.305Z,32.60
2019-06-08T13:04:33.645Z,33.30
2019-06-08T13:08:43.905Z,33.80
2019-06-08T13:12:54.173Z,34.40
2019-06-08T13:17:04.502Z,33.70
2019-06-08T13:21:31.047Z,33.80
2019-06-08T13:25:37.359Z,32.10
2019-06-08T13:29:39.399Z,32.90
2019-06-08T13:33:49.623Z,31.50
2019-06-08T13:37:59.936Z,31.80
2019-06-08T13:42:11.291Z,32.30
2019-06-08T13:46:23.540Z,32.50
2019-06-08T13:50:33.503Z,32.80
2019-06-08T13:54:43.714Z,33.60
2019-06-08T13:58:53.912Z,34.30
2019-06-08T14:03:08.249Z,34.10
2019-06-08T14:07:23.688Z,34.00
2019-06-08T14:11:29.894Z,33.70
2019-06-08T14:15:40.226Z,33.50
2019-06-08T14:19:51.648Z,34.10
2019-06-08T14:24:02.074Z,34.80
2019-06-08T14:28:12.308Z,35.20
2019-06-08T14:32:23.822Z,34.50
2019-06-08T14:36:34.148Z,35.00
2019-06-08T14:40:51.315Z,34.50
2019-06-08T14:44:57.844Z,34.70
2019-06-08T14:49:11.259Z,34.30
2019-06-08T14:53:22.952Z,34.30
2019-06-08T14:57:33.308Z,34.30
2019-06-08T15:01:44.253Z,34.10
2019-06-08T15:05:54.580Z,34.10
2019-06-08T15:10:09.757Z,33.20
2019-06-08T15:14:19.345Z,34.00
2019-06-08T15:18:30.457Z,34.00
2019-06-08T15:22:41.740Z,34.70
2019-06-08T15:26:51.954Z,34.80
2019-06-08T15:31:02.226Z,34.80
2019-06-08T15:35:12.667Z,35.00
2019-06-08T15:39:23.465Z,34.50
2019-06-08T15:43:37.056Z,33.70
2019-06-08T15:47:45.726Z,33.00
2019-06-08T15:51:57.925Z,33.70
2019-06-08T15:56:08.535Z,33.80
2019-06-08T16:00:18.968Z,33.10
2019-06-08T16:04:30.212Z,33.30
2019-06-08T16:08:40.531Z,34.00
2019-06-08T16:12:50.788Z,34.00
2019-06-08T16:17:01.031Z,34.70
2019-06-08T16:21:11.469Z,34.90
2019-06-08T16:25:21.761Z,34.70
2019-06-08T16:29:33.308Z,35.00
2019-06-08T16:33:44.384Z,35.60
2019-06-08T16:37:54.662Z,35.80
2019-06-08T16:42:05.019Z,36.00
2019-06-08T16:46:15.360Z,36.20
2019-06-08T16:50:25.703Z,35.60
2019-06-08T16:54:37.217Z,35.50
2019-06-08T16:58:47.849Z,34.90
2019-06-08T17:02:58.070Z,34.70
2019-06-08T17:07:08.521Z,35.20
2019-06-08T17:11:18.980Z,35.40
2019-06-08T17:15:30.177Z,35.30
2019-06-08T17:19:40.661Z,35.40
2019-06-08T17:23:51.100Z,35.70
2019-06-08T17:28:01.440Z,36.00
2019-06-08T17:32:11.675Z,36.20
2019-06-08T17:36:22.415Z,36.20
2019-06-08T17:40:33.845Z,36.40
2019-06-08T17:44:45.305Z,36.80
2019-06-08T17:48:55.495Z,36.30
2019-06-08T17:53:05.835Z,36.80
2019-06-08T17:57:16.176Z,36.70
2019-06-08T18:01:26.475Z,37.20
2019-06-08T18:05:39.385Z,37.10
2019-06-08T18:09:48.582Z,37.30
2019-06-08T18:13:59.729Z,37.50
2019-06-08T18:18:10.174Z,38.60
2019-06-08T18:22:20.407Z,39.20
2019-06-08T18:26:30.612Z,39.60
2019-06-08T18:30:43.183Z,40.00
2019-06-08T18:34:52.793Z,40.40
2019-06-08T18:39:04.581Z,40.80
2019-06-08T18:43:16.951Z,40.50
2019-06-08T18:47:27.380Z,40.60
2019-06-08T18:51:38.235Z,40.60
2019-06-08T18:55:50.544Z,41.40
2019-06-08T19:00:08.159Z,42.10
2019-06-08T19:04:13.233Z,42.30
2019-06-08T19:08:23.542Z,43.10
2019-06-08T19:12:33.869Z,43.70
2019-06-08T19:16:46.884Z,44.50
2019-06-08T19:20:57.665Z,44.40
2019-06-08T19:25:08.038Z,44.90
2019-06-08T19:29:19.448Z,45.10
2019-06-08T19:33:29.920Z,45.40
2019-06-08T19:37:40.172Z,45.70
2019-06-08T19:41:50.638Z,46.60
2019-06-08T19:46:00.966Z,47.30
2019-06-08T19:50:11.534Z,47.80
2019-06-08T19:54:21.826Z,48.10
2019-06-08T19:58:32.000Z,48.30
2019-06-08T20:02:42.698Z,48.80
2019-06-08T20:06:53.153Z,49.10
2019-06-08T20:11:03.465Z,49.40
2019-06-08T20:15:14.299Z,49.40
2019-06-08T20:19:24.523Z,49.30
2019-06-08T20:23:34.721Z,49.50
2019-06-08T20:27:45.344Z,49.70
2019-06-08T20:31:58.192Z,49.70
2019-06-08T20:36:08.824Z,50.00
2019-06-08T20:40:19.088Z,50.20
2019-06-08T20:44:30.329Z,50.20
2019-06-08T20:48:40.625Z,50.30
2019-06-08T20:52:52.251Z,50.50
2019-06-08T20:57:03.018Z,50.80
2019-06-08T21:01:13.311Z,51.20
2019-06-08T21:05:23.606Z,51.40
2019-06-08T21:09:33.844Z,51.60
2019-06-08T21:13:45.226Z,51.40
2019-06-08T21:17:56.024Z,51.90
2019-06-08T21:22:08.198Z,52.50
2019-06-08T21:26:18.494Z,53.70
2019-06-08T21:30:28.780Z,53.50
2019-06-08T21:34:39.116Z,53.50
2019-06-08T21:38:51.944Z,54.20
2019-06-08T21:43:01.595Z,54.60
2019-06-08T21:47:11.903Z,54.50
2019-06-08T21:51:22.276Z,55.40
2019-06-08T21:55:32.577Z,55.60
2019-06-08T21:59:42.817Z,55.80
2019-06-08T22:03:53.727Z,56.50
2019-06-08T22:08:04.470Z,56.80
2019-06-08T22:12:14.719Z,56.60
2019-06-08T22:16:27.289Z,56.20
2019-06-08T22:20:38.285Z,56.50
2019-06-08T22:24:48.798Z,57.10
2019-06-08T22:29:01.011Z,57.60
2019-06-08T22:33:11.989Z,57.80
2019-06-08T22:37:22.342Z,58.10
2019-06-08T22:41:32.560Z,58.30
2019-06-08T22:45:43.198Z,59.00
2019-06-08T22:49:54.644Z,59.60
2019-06-08T22:54:07.834Z,59.90
2019-06-08T22:58:19.044Z,59.80
2019-06-08T23:02:29.685Z,59.90
2019-06-08T23:06:40.009Z,60.10
2019-06-08T23:10:50.476Z,60.40
2019-06-08T23:15:02.291Z,60.50
2019-06-08T23:19:13.139Z,61.40
2019-06-08T23:23:23.372Z,62.00
2019-06-08T23:27:33.616Z,62.20
2019-06-08T23:31:43.865Z,62.20
2019-06-08T23:36:30.813Z,61.10
2019-06-08T23:40:07.500Z,61.60
2019-06-08T23:44:17.940Z,61.60
2019-06-08T23:48:28.297Z,63.60
2019-06-08T23:52:38.619Z,64.10
2019-06-08T23:56:48.891Z,65.40
